Impacts METAR Board
IDs:

KGTU - Georgetown Muni, TX, US

Updated at: 0200 UTC 15 Aug 2020
Potential Impact None Slight Moderate High
Time 14/14Z 14/15Z 14/16Z 14/17Z 14/18Z 14/19Z 14/20Z 14/21Z 14/22Z 14/23Z 15/00Z 15/01Z 15/02Z
Temp83 87 91 94 97 99 101 102 103 102 101 99 95
Dewpt72 71 70 67 64 64 63 64 62 59 58 60 61
Altim29.97 29.97 29.98 29.97 29.95 29.92 29.90 29.88 29.86 29.85 29.84 29.85 29.86
VIS10 10 10 10 10 10 10 10 10 10 10 10 10
CIG-- -- -- -- -- -- -- -- -- -- -- -- --
CoverCLRCLRCLRCLRCLRCLRCLRCLRCLRCLRCLRCLRCLR
FltCatVFRVFRVFRVFRVFRVFRVFRVFRVFRVFRVFRVFRVFR
WX--------------------------
WDir200190230210180180170160150160160160170
WSpd10 13 8 8 12 13 9 12 9 9 9 6 6
WGst-- -- -- -- -- 17 15 16 14 15 15 -- --
Raw hourly METARs
KGTU 141356Z 20010KT 10SM CLR 28/22 A2997 RMK AO2 SLP139 T02830222
KGTU 141456Z 19013KT 10SM CLR 31/22 A2997 RMK AO2 SLP142 T03060217 50006
KGTU 141556Z 23008KT 10SM CLR 33/21 A2998 RMK AO2 SLP143 T03280211
KGTU 141656Z 21008KT 10SM CLR 34/19 A2997 RMK AO2 SLP140 T03440194
KGTU 141756Z 18012KT 10SM CLR 36/18 A2995 RMK AO2 SLP133 T03610178 10361 20256 58007
KGTU 141856Z 18013G17KT 10SM CLR 37/18 A2992 RMK AO2 SLP124 T03720178
KGTU 141956Z 17009G15KT 10SM CLR 38/17 A2990 RMK AO2 SLP117 T03830172
KGTU 142056Z 16012G16KT 10SM CLR 39/18 A2988 RMK AO2 SLP108 T03890178 56024
KGTU 142156Z 15009G14KT 10SM CLR 39/17 A2986 RMK AO2 SLP101 T03940167
KGTU 142256Z 16009G15KT 10SM CLR 39/15 A2985 RMK AO2 SLP097 T03890150
KGTU 142356Z 16009G15KT 10SM CLR 38/14 A2984 RMK AO2 SLP097 T03830144 10394 20361 56012
KGTU 150056Z 16006KT 10SM CLR 37/16 A2985 RMK AO2 SLP098 T03720156
KGTU 150156Z 17006KT 10SM CLR 35/16 A2986 RMK AO2 SLP102 T03500161